Ronald Reagan Washington National Airport
KDCA : now visible

Airfield :











YOU CAN JOIN US ON...

 
LOGIN :

Register | Disclaimer

   EN    FR    IT 

 









Legend :    VFR   Marginal VFR   IFR   Intensive IFR   Very Intensive IFR
Visi :
Ceiling :
>= 8 km
>= 3000ft
5 to 8 km
1000 to 3000 ft
1500m to 5 km
500 to 1000 ft
800 to 1500m
200 to 500 ft
< 800m
< 200 ft
Symbols :   Thunderstorms  Fog  Heavy snow  Heavy precipitations  Wind > 20 kt






- Airport Elevation : 15 ft
- IATA code : DCA


KDCA - Ronald Reagan Washington National

CURRENT METAR :
  • 070852Z 24003KT 10SM FEW140 BKN250 10/06 A2991 RMK AO2 SLP128 T01000061 56014

EXPIRED METARs :
  • 070752Z 00000KT 10SM BKN250 10/06 A2992 RMK AO2 SLP131 T01000061
  • 070652Z 00000KT 10SM FEW140 OVC250 12/07 A2994 RMK AO2 SLP137 T01170067

TAF KDCA
Valid from the 07 at 09:00 until the 08 at 12:00 UTC


070918Z 0709/0812 00000KT P6SM FEW140
FM071700 16007KT P6SM OVC060
FM071900 19007KT P6SM -SHRA OVC045
FM072200 28008KT 5SM -SHRA OVC025
FM080000 31008KT 4SM -SHRA OVC015
FM080300 32006KT P6SM -SHRA BKN035
FM081000 28005KT P6SM BKN045
KZDC FIR / North America



MET'MAP, your aeronautical weather chart ! - Copyright ORBIFLY December 2007 - Disclaimer

ORBIFLY MET'MAP TEAM :

Programming & Development : Alexandra Zaïnal
Concept & original design : Baudouin d'Aumeries
Assistance for programming : Marc-Olivier Méhu
Technical & hardware support : Manuel Goepfert

Contact : metmap@orbifly.com




SOURCES & CREDITS :

   NOAA       Earth
Advisory